createdAt,value
2023-04-04T00:00:51.355Z,100151.93
2023-04-04T00:01:53.531Z,100146.70
2023-04-04T00:02:55.641Z,100149.30
2023-04-04T00:03:58.041Z,100148.47
2023-04-04T00:05:00.218Z,100148.44
2023-04-04T00:06:02.998Z,100151.89
2023-04-04T00:07:05.044Z,100148.36
2023-04-04T00:08:06.913Z,100150.16
2023-04-04T00:09:09.156Z,100148.44
2023-04-04T00:10:12.286Z,100148.44
2023-04-04T00:11:14.436Z,100150.23
2023-04-04T00:12:16.613Z,100141.52
2023-04-04T00:13:18.780Z,100147.72
2023-04-04T00:14:21.132Z,100136.44
2023-04-04T00:15:23.519Z,100143.42
2023-04-04T00:16:26.352Z,100140.80
2023-04-04T00:17:28.490Z,100138.16
2023-04-04T00:18:30.590Z,100145.23
2023-04-04T00:19:33.066Z,100142.59
2023-04-04T00:20:35.748Z,100139.89
2023-04-04T00:21:37.784Z,100144.33
2023-04-04T00:22:39.770Z,100145.30
2023-04-04T00:23:41.669Z,100136.58
2023-04-04T00:24:43.695Z,100125.98
2023-04-04T00:25:52.898Z,100135.61
2023-04-04T00:26:55.209Z,100134.70
2023-04-04T00:27:57.385Z,100137.34
2023-04-04T00:29:00.113Z,100136.44
2023-04-04T00:30:02.606Z,100134.70
2023-04-04T00:31:05.262Z,100131.17
2023-04-04T00:32:08.139Z,100128.55
2023-04-04T00:33:10.491Z,100134.67
2023-04-04T00:34:12.781Z,100134.63
2023-04-04T00:35:15.461Z,100134.53
2023-04-04T00:36:17.747Z,100135.36
2023-04-04T00:37:20.313Z,100133.66
2023-04-04T00:38:22.460Z,100133.62
2023-04-04T00:39:25.243Z,100129.23
2023-04-04T00:40:27.635Z,100133.55
2023-04-04T00:41:30.275Z,100130.09
2023-04-04T00:42:33.340Z,100133.66
2023-04-04T00:43:35.662Z,100138.92
2023-04-04T00:44:37.817Z,100132.88
2023-04-04T00:45:40.823Z,100131.07
2023-04-04T00:46:43.521Z,100137.34
2023-04-04T00:47:47.069Z,100137.30
2023-04-04T00:48:50.428Z,100145.16
2023-04-04T00:49:53.380Z,100141.59
2023-04-04T00:50:55.625Z,100139.75
2023-04-04T00:51:57.881Z,100150.23
2023-04-04T00:53:00.118Z,100151.09
2023-04-04T00:54:02.992Z,100152.03
2023-04-04T00:55:06.619Z,100149.37
2023-04-04T00:56:09.526Z,100149.34
2023-04-04T00:57:12.013Z,100151.06
2023-04-04T00:58:14.284Z,100156.33
2023-04-04T00:59:16.623Z,100149.34
2023-04-04T01:00:19.397Z,100146.63
2023-04-04T01:01:22.841Z,100141.33
2023-04-04T01:02:25.449Z,100147.50
2023-04-04T01:03:27.912Z,100147.45
2023-04-04T01:04:32.036Z,100144.91
2023-04-04T01:05:34.354Z,100142.31
2023-04-04T01:06:37.322Z,100141.44
2023-04-04T01:07:44.185Z,100140.62
2023-04-04T01:09:58.349Z,100137.77
2023-04-04T01:11:01.394Z,100133.70
2023-04-04T01:12:05.089Z,100137.30
2023-04-04T01:13:08.432Z,100138.06
2023-04-04T01:14:10.658Z,100137.20
2023-04-04T01:15:13.366Z,100129.27
2023-04-04T01:16:16.008Z,100129.38
2023-04-04T01:17:18.946Z,100131.07
2023-04-04T01:18:23.725Z,100134.63
2023-04-04T01:19:30.000Z,100133.77
2023-04-04T01:20:35.380Z,100134.63
2023-04-04T01:21:39.836Z,100123.19
2023-04-04T01:22:45.564Z,100138.92
2023-04-04T01:24:02.153Z,100137.98
2023-04-04T01:25:19.071Z,100140.58
2023-04-04T01:26:23.278Z,100128.26
2023-04-04T01:27:26.092Z,100137.91
2023-04-04T01:28:30.754Z,100134.38
2023-04-04T01:29:33.463Z,100143.17
2023-04-04T01:30:38.671Z,100131.86
2023-04-04T01:31:51.386Z,100134.53
2023-04-04T01:34:33.441Z,100139.31
2023-04-04T01:35:42.070Z,100132.77
2023-04-04T01:36:54.137Z,100136.26
2023-04-04T01:38:31.481Z,100135.39
2023-04-04T01:39:43.453Z,100131.00
2023-04-04T01:40:50.363Z,100140.62
2023-04-04T01:41:56.245Z,100137.95
2023-04-04T01:42:58.762Z,100145.91
2023-04-04T01:44:02.892Z,100144.97
2023-04-04T01:45:07.487Z,100145.05
2023-04-04T01:46:11.401Z,100148.69
2023-04-04T01:47:14.634Z,100148.69
2023-04-04T01:48:17.528Z,100147.78
2023-04-04T01:49:22.529Z,100150.48
2023-04-04T01:50:24.973Z,100151.38
2023-04-04T01:51:28.339Z,100150.56
2023-04-04T01:52:30.784Z,100162.73
2023-04-04T01:53:33.574Z,100160.11
2023-04-04T01:54:35.637Z,100158.30
2023-04-04T01:55:37.939Z,100156.43
2023-04-04T01:56:40.995Z,100155.71
2023-04-04T01:57:43.161Z,100151.31
2023-04-04T01:58:45.738Z,100161.87
2023-04-04T01:59:47.947Z,100163.56
2023-04-04T02:00:50.247Z,100157.47
2023-04-04T02:01:52.582Z,100166.19
2023-04-04T02:02:55.111Z,100161.83
2023-04-04T02:03:57.221Z,100161.73
2023-04-04T02:04:59.478Z,100164.36
2023-04-04T02:06:01.386Z,100162.55
2023-04-04T02:07:03.559Z,100164.32
2023-04-04T02:08:06.220Z,100160.93
2023-04-04T02:09:10.332Z,100158.20
2023-04-04T02:10:13.135Z,100157.37
2023-04-04T02:11:15.412Z,100164.42
2023-04-04T02:12:17.856Z,100163.56
2023-04-04T02:13:20.011Z,100159.09
2023-04-04T02:14:23.506Z,100167.99
2023-04-04T02:15:25.923Z,100154.02
2023-04-04T02:16:29.182Z,100161.00
2023-04-04T02:17:31.613Z,100152.22
2023-04-04T02:18:33.781Z,100164.46
2023-04-04T02:19:35.936Z,100160.11
2023-04-04T02:20:38.400Z,100157.47
2023-04-04T02:21:41.070Z,100162.63
2023-04-04T02:22:43.178Z,100164.28
2023-04-04T02:23:46.284Z,100152.90
2023-04-04T02:24:49.951Z,100156.47
2023-04-04T02:25:52.200Z,100160.93
2023-04-04T02:26:54.880Z,100154.81
2023-04-04T02:27:57.043Z,100153.84
2023-04-04T02:28:59.830Z,100151.20
2023-04-04T02:30:02.010Z,100149.48
2023-04-04T02:31:05.285Z,100149.55
2023-04-04T02:32:08.672Z,100148.75
2023-04-04T02:33:11.954Z,100155.74
2023-04-04T02:34:14.464Z,100146.98
2023-04-04T02:35:17.149Z,100153.15
2023-04-04T02:36:19.355Z,100141.84
2023-04-04T02:37:22.472Z,100141.87
2023-04-04T02:38:26.489Z,100144.44
2023-04-04T02:39:28.789Z,100145.23
2023-04-04T02:40:31.029Z,100144.36
2023-04-04T02:41:34.071Z,100138.23
2023-04-04T02:42:43.155Z,100143.50
2023-04-04T02:43:45.333Z,100140.04
2023-04-04T02:44:47.609Z,100140.87
2023-04-04T02:45:51.208Z,100140.04
2023-04-04T02:46:58.350Z,100139.20
2023-04-04T02:48:02.430Z,100135.72
2023-04-04T02:49:06.620Z,100129.66
2023-04-04T02:50:10.088Z,100131.50
2023-04-04T02:51:12.981Z,100119.25
2023-04-04T02:52:15.148Z,100121.02
2023-04-04T02:53:19.316Z,100120.12
2023-04-04T02:54:23.210Z,100119.25
2023-04-04T02:55:25.474Z,100114.03
2023-04-04T02:56:27.849Z,100116.73
2023-04-04T02:57:30.102Z,100115.87
2023-04-04T02:58:32.402Z,100113.31
2023-04-04T02:59:34.618Z,100119.39
2023-04-04T03:00:37.305Z,100108.88
2023-04-04T03:01:39.962Z,100113.27
2023-04-04T03:02:42.276Z,100118.53
2023-04-04T03:03:45.425Z,100110.75
2023-04-04T03:04:48.256Z,100110.75
2023-04-04T03:05:50.977Z,100114.25
2023-04-04T03:06:53.187Z,100110.75
2023-04-04T03:07:57.238Z,100110.75
2023-04-04T03:08:59.814Z,100119.39
2023-04-04T03:10:02.738Z,100121.13
2023-04-04T03:11:04.901Z,100120.30
2023-04-04T03:12:07.162Z,100116.88
2023-04-04T03:13:10.069Z,100127.31
2023-04-04T03:14:12.310Z,100124.66
2023-04-04T03:15:15.012Z,100132.58
2023-04-04T03:16:18.112Z,100131.67
2023-04-04T03:17:22.700Z,100143.19
2023-04-04T03:18:24.906Z,100137.03
2023-04-04T03:19:27.789Z,100146.66
2023-04-04T03:20:30.006Z,100140.56
2023-04-04T03:21:32.152Z,100137.11
2023-04-04T03:22:34.299Z,100147.72
2023-04-04T03:23:37.224Z,100149.48
2023-04-04T03:24:40.301Z,100152.19
2023-04-04T03:25:42.696Z,100152.19
2023-04-04T03:26:44.938Z,100151.31
2023-04-04T03:27:47.506Z,100150.45
2023-04-04T03:28:51.540Z,100153.11
2023-04-04T03:29:57.260Z,100151.38
2023-04-04T03:32:13.343Z,100157.16
2023-04-04T03:33:15.780Z,100156.64
2023-04-04T03:34:18.241Z,100159.17
2023-04-04T03:35:20.448Z,100166.16
2023-04-04T03:36:22.858Z,100167.84
2023-04-04T03:37:25.647Z,100167.92
2023-04-04T03:38:27.577Z,100167.02
2023-04-04T03:39:29.667Z,100172.27
2023-04-04T03:40:32.459Z,100166.95
2023-04-04T03:41:35.799Z,100169.58
2023-04-04T03:42:38.001Z,100167.78
2023-04-04T03:43:42.169Z,100173.94
2023-04-04T03:44:44.925Z,100180.86
2023-04-04T03:45:48.896Z,100174.70
2023-04-04T03:46:51.087Z,100178.16
2023-04-04T03:47:53.786Z,100173.73
2023-04-04T03:48:57.872Z,100185.05
2023-04-04T03:50:00.083Z,100175.44
2023-04-04T03:51:03.158Z,100175.44
2023-04-04T03:52:05.966Z,100175.44
2023-04-04T03:53:07.913Z,100170.17
2023-04-04T03:54:10.386Z,100167.47
2023-04-04T03:55:13.043Z,100170.11
2023-04-04T03:56:15.331Z,100167.38
2023-04-04T03:57:17.481Z,100166.58
2023-04-04T03:58:19.744Z,100164.75
2023-04-04T03:59:22.007Z,100167.47
2023-04-04T04:00:24.488Z,100163.19
2023-04-04T04:01:26.748Z,100165.78
2023-04-04T04:02:28.865Z,100163.19
2023-04-04T04:03:31.194Z,100164.02
2023-04-04T04:04:33.582Z,100173.70
2023-04-04T04:05:35.801Z,100175.44
2023-04-04T04:06:38.763Z,100179.83
2023-04-04T04:07:43.712Z,100178.96
2023-04-04T04:08:46.035Z,100180.69
2023-04-04T04:09:48.180Z,100184.15
2023-04-04T04:10:50.545Z,100184.22
2023-04-04T04:11:53.188Z,100184.22
2023-04-04T04:12:55.536Z,100186.02
2023-04-04T04:13:58.313Z,100178.23
2023-04-04T04:15:00.603Z,100179.99
2023-04-04T04:16:05.100Z,100184.45
2023-04-04T04:17:07.893Z,100183.59
2023-04-04T04:18:10.162Z,100183.59
2023-04-04T04:19:12.264Z,100181.86
2023-04-04T04:20:16.121Z,100188.02
2023-04-04T04:21:20.222Z,100189.78
2023-04-04T04:22:22.705Z,100188.05
2023-04-04T04:23:25.463Z,100188.94
2023-04-04T04:24:27.922Z,100198.56
2023-04-04T04:25:30.163Z,100196.89
2023-04-04T04:26:39.955Z,100193.37
2023-04-04T04:27:44.070Z,100197.73
2023-04-04T04:28:46.897Z,100192.41
2023-04-04T04:29:50.150Z,100197.70
2023-04-04T04:30:52.987Z,100195.96
2023-04-04T04:31:57.202Z,100194.27
2023-04-04T04:33:01.629Z,100190.80
2023-04-04T04:34:07.391Z,100195.16
2023-04-04T04:35:10.955Z,100190.77
2023-04-04T04:36:13.700Z,100196.86
2023-04-04T04:37:34.701Z,100199.42
2023-04-04T04:38:37.846Z,100199.39
2023-04-04T04:39:40.419Z,100202.88
2023-04-04T04:40:48.801Z,100207.20
2023-04-04T04:41:53.046Z,100206.34
2023-04-04T04:42:55.399Z,100201.95
2023-04-04T04:43:57.758Z,100207.20
2023-04-04T04:45:01.931Z,100204.65
2023-04-04T04:46:05.623Z,100203.81
2023-04-04T04:47:08.008Z,100206.41
2023-04-04T04:48:12.408Z,100205.55
2023-04-04T04:49:16.478Z,100205.55
2023-04-04T04:50:19.376Z,100206.41
2023-04-04T04:51:23.777Z,100219.52
2023-04-04T04:52:28.040Z,100212.53
2023-04-04T04:53:30.314Z,100213.40
2023-04-04T04:54:34.105Z,100216.89
2023-04-04T04:55:36.263Z,100211.67
2023-04-04T04:56:40.372Z,100214.16
2023-04-04T04:57:47.040Z,100215.90
2023-04-04T04:58:51.124Z,100214.16
2023-04-04T04:59:58.517Z,100215.03
2023-04-04T05:01:01.973Z,100210.57
2023-04-04T05:02:06.517Z,100215.83
2023-04-04T05:03:10.528Z,100213.20
2023-04-04T05:04:14.518Z,100212.30
2023-04-04T05:05:18.562Z,100216.66
2023-04-04T05:06:21.515Z,100214.86
2023-04-04T05:07:24.811Z,100214.90
2023-04-04T05:08:28.642Z,100207.91
2023-04-04T05:09:32.798Z,100206.98
2023-04-04T05:10:35.180Z,100208.70
2023-04-04T05:11:37.361Z,100216.56
2023-04-04T05:12:43.754Z,100209.54
2023-04-04T05:13:47.780Z,100212.14
2023-04-04T05:14:50.777Z,100217.43
2023-04-04T05:15:53.544Z,100206.02
2023-04-04T05:16:56.426Z,100206.78
2023-04-04T05:18:00.612Z,100211.94
2023-04-04T05:19:03.184Z,100217.19
2023-04-04T05:20:10.985Z,100215.43
2023-04-04T05:21:13.555Z,100215.46
2023-04-04T05:22:16.164Z,100209.51
2023-04-04T05:23:21.238Z,100205.91
2023-04-04T05:24:23.341Z,100204.15
2023-04-04T05:25:25.539Z,100209.38
2023-04-04T05:26:27.554Z,100210.27
2023-04-04T05:27:29.995Z,100206.87
2023-04-04T05:28:34.937Z,100206.91
2023-04-04T05:29:39.049Z,100198.20
2023-04-04T05:30:42.340Z,100208.70
2023-04-04T05:31:46.874Z,100210.47
2023-04-04T05:32:51.533Z,100208.70
2023-04-04T05:33:56.294Z,100213.91
2023-04-04T05:35:00.717Z,100210.44
2023-04-04T05:36:05.280Z,100211.30
2023-04-04T05:38:17.695Z,100213.77
2023-04-04T05:39:20.382Z,100222.82
2023-04-04T05:40:24.464Z,100212.30
2023-04-04T05:41:28.858Z,100214.90
2023-04-04T05:42:32.993Z,100226.28
2023-04-04T05:43:36.152Z,100228.08
2023-04-04T05:44:44.190Z,100235.96
2023-04-04T05:45:46.845Z,100242.12
2023-04-04T05:47:58.265Z,100231.41
2023-04-04T05:49:00.974Z,100222.15
2023-04-04T05:50:03.972Z,100210.73
2023-04-04T05:51:07.456Z,100204.58
2023-04-04T05:52:11.468Z,100195.86
2023-04-04T05:53:14.418Z,100195.06
2023-04-04T05:55:26.776Z,100197.46
2023-04-04T05:56:30.147Z,100198.82
2023-04-04T05:57:35.239Z,100216.34
2023-04-04T05:58:38.028Z,100219.81
2023-04-04T05:59:40.086Z,100223.23
2023-04-04T06:00:44.114Z,100220.64
2023-04-04T06:01:46.246Z,100234.77
2023-04-04T06:02:50.454Z,100244.36
2023-04-04T06:03:54.832Z,100235.48
2023-04-04T06:04:58.914Z,100234.55
2023-04-04T06:06:10.280Z,100233.63
2023-04-04T06:07:13.090Z,100236.25
2023-04-04T06:08:17.614Z,100241.48
2023-04-04T06:09:20.059Z,100245.03
2023-04-04T06:10:22.371Z,100251.13
2023-04-04T06:11:25.295Z,100247.66
2023-04-04T06:12:29.691Z,100253.75
2023-04-04T06:13:31.955Z,100249.39
2023-04-04T06:14:36.402Z,100262.56
2023-04-04T06:15:40.441Z,100261.70
2023-04-04T06:16:42.554Z,100256.47
2023-04-04T06:17:45.165Z,100259.14
2023-04-04T06:18:48.258Z,100263.49
2023-04-04T06:19:50.521Z,100252.95
2023-04-04T06:20:52.886Z,100258.14
2023-04-04T06:21:55.062Z,100254.59
2023-04-04T06:22:58.425Z,100262.41
2023-04-04T06:24:01.939Z,100254.52
2023-04-04T06:25:04.814Z,100254.55
2023-04-04T06:27:16.591Z,100256.93
2023-04-04T06:28:19.455Z,100256.51
2023-04-04T06:29:23.062Z,100249.48
2023-04-04T06:30:25.459Z,100253.84
2023-04-04T06:31:28.031Z,100255.55
2023-04-04T06:32:33.242Z,100252.02
2023-04-04T06:33:36.613Z,100257.25
2023-04-04T06:34:39.572Z,100259.91
2023-04-04T06:35:45.130Z,100260.80
2023-04-04T06:36:48.313Z,100261.64
2023-04-04T06:37:55.804Z,100257.31
2023-04-04T06:38:59.670Z,100261.64
2023-04-04T06:40:01.720Z,100260.71
2023-04-04T06:41:04.849Z,100258.11
2023-04-04T06:42:07.113Z,100255.48
2023-04-04T06:43:10.996Z,100259.97
2023-04-04T06:44:15.086Z,100263.44
2023-04-04T06:45:17.357Z,100252.86
2023-04-04T06:46:19.947Z,100249.33
2023-04-04T06:47:22.744Z,100258.11
2023-04-04T06:48:25.091Z,100259.84
2023-04-04T06:49:27.764Z,100252.86
2023-04-04T06:50:31.288Z,100252.89
2023-04-04T06:51:34.341Z,100257.19
2023-04-04T06:52:39.113Z,100255.39
2023-04-04T06:53:40.895Z,100250.97
2023-04-04T06:54:43.135Z,100253.59
2023-04-04T06:55:45.190Z,100256.16
2023-04-04T06:56:47.787Z,100252.66
2023-04-04T06:57:49.922Z,100249.17
2023-04-04T06:58:53.148Z,100254.36
2023-04-04T06:59:56.645Z,100257.89
2023-04-04T07:00:58.666Z,100253.50
2023-04-04T07:02:00.925Z,100257.05
2023-04-04T07:03:03.112Z,100244.81
2023-04-04T07:04:05.243Z,100255.23
2023-04-04T07:05:08.230Z,100248.21
2023-04-04T07:06:11.529Z,100242.05
2023-04-04T07:07:13.551Z,100236.77
2023-04-04T07:08:15.650Z,100240.25
2023-04-04T07:09:28.195Z,100238.46
2023-04-04T07:10:22.908Z,100241.09
2023-04-04T07:11:24.995Z,100240.95
2023-04-04T07:12:27.083Z,100246.19
2023-04-04T07:13:29.479Z,100241.83
2023-04-04T07:14:31.556Z,100248.81
2023-04-04T07:15:33.614Z,100248.88
2023-04-04T07:16:35.725Z,100238.30
2023-04-04T07:17:38.014Z,100240.03
2023-04-04T07:18:40.806Z,100240.95
2023-04-04T07:19:42.999Z,100245.35
2023-04-04T07:20:48.589Z,100245.45
2023-04-04T07:21:51.888Z,100245.45
2023-04-04T07:22:54.113Z,100242.78
2023-04-04T07:23:56.284Z,100254.11
2023-04-04T07:24:58.466Z,100247.08
2023-04-04T07:26:00.547Z,100254.01
2023-04-04T07:27:03.290Z,100255.80
2023-04-04T07:28:12.844Z,100258.47
2023-04-04T07:30:18.781Z,100251.28
2023-04-04T07:31:20.868Z,100256.86
2023-04-04T07:32:24.642Z,100248.88
2023-04-04T07:33:27.493Z,100254.23
2023-04-04T07:34:30.007Z,100259.39
2023-04-04T07:35:32.547Z,100265.59
2023-04-04T07:36:35.199Z,100266.38
2023-04-04T07:37:37.867Z,100252.44
2023-04-04T07:38:40.018Z,100266.48
2023-04-04T07:39:44.893Z,100261.22
2023-04-04T07:40:52.057Z,100257.63
2023-04-04T07:41:54.776Z,100262.86
2023-04-04T07:42:57.503Z,100264.59
2023-04-04T07:43:59.710Z,100259.30
2023-04-04T07:45:03.871Z,100268.02
2023-04-04T07:46:06.922Z,100254.07
2023-04-04T07:47:10.501Z,100264.52
2023-04-04T07:48:12.859Z,100257.53
2023-04-04T07:49:14.967Z,100262.80
2023-04-04T07:50:17.274Z,100268.02
2023-04-04T07:51:19.216Z,100270.62
2023-04-04T07:52:21.693Z,100267.13
2023-04-04T07:53:24.521Z,100274.05
2023-04-04T07:54:26.672Z,100270.52
2023-04-04T07:55:28.817Z,100269.75
2023-04-04T07:56:30.885Z,100278.53
2023-04-04T07:57:36.070Z,100275.04
2023-04-04T07:58:38.171Z,100276.77
2023-04-04T07:59:40.745Z,100275.01
2023-04-04T08:00:43.392Z,100272.38
2023-04-04T08:01:46.313Z,100288.13
2023-04-04T08:02:56.013Z,100282.86
2023-04-04T08:03:58.615Z,100281.20
2023-04-04T08:05:00.863Z,100279.53
2023-04-04T08:06:03.806Z,100277.70
2023-04-04T08:07:05.970Z,100280.36
2023-04-04T08:08:08.241Z,100277.67
2023-04-04T08:09:10.211Z,100268.88
2023-04-04T08:10:12.616Z,100271.58
2023-04-04T08:11:14.672Z,100267.19
2023-04-04T08:12:17.030Z,100273.47
2023-04-04T08:13:19.511Z,100273.47
2023-04-04T08:14:21.960Z,100272.61
2023-04-04T08:15:24.139Z,100270.01
2023-04-04T08:16:26.327Z,100268.28
2023-04-04T08:17:29.036Z,100281.42
2023-04-04T08:18:31.422Z,100273.60
2023-04-04T08:19:33.488Z,100284.11
2023-04-04T08:20:35.870Z,100275.33
2023-04-04T08:21:37.939Z,100284.98
2023-04-04T08:22:41.482Z,100286.65
2023-04-04T08:23:44.034Z,100278.80
2023-04-04T08:24:46.806Z,100274.37
2023-04-04T08:25:49.370Z,100280.53
2023-04-04T08:27:01.813Z,100276.10
2023-04-04T08:27:55.635Z,100272.48
2023-04-04T08:28:58.351Z,100269.78
2023-04-04T08:30:00.874Z,100275.84
2023-04-04T08:31:03.471Z,100270.55
2023-04-04T08:32:05.660Z,100272.31
2023-04-04T08:33:07.880Z,100274.98
2023-04-04T08:34:10.082Z,100269.62
2023-04-04T08:35:12.139Z,100266.12
2023-04-04T08:36:15.241Z,100268.75
2023-04-04T08:37:18.158Z,100262.56
2023-04-04T08:38:20.575Z,100266.12
2023-04-04T08:39:22.644Z,100268.69
2023-04-04T08:40:24.773Z,100267.75
2023-04-04T08:41:27.776Z,100271.22
2023-04-04T08:42:35.266Z,100268.59
2023-04-04T08:43:38.678Z,100267.75
2023-04-04T08:44:45.426Z,100271.22
2023-04-04T08:45:49.803Z,100265.09
2023-04-04T08:46:53.054Z,100268.59
2023-04-04T08:47:57.856Z,100268.63
2023-04-04T08:49:02.926Z,100274.75
2023-04-04T08:50:07.312Z,100269.42
2023-04-04T08:51:13.074Z,100271.22
2023-04-04T08:52:17.633Z,100265.95
2023-04-04T08:53:19.882Z,100270.35
2023-04-04T08:54:24.051Z,100275.61
2023-04-04T08:55:26.156Z,100274.68
2023-04-04T08:56:29.119Z,100267.63
2023-04-04T08:57:31.772Z,100277.17
2023-04-04T08:58:33.928Z,100278.94
2023-04-04T08:59:36.592Z,100277.91
2023-04-04T09:00:39.396Z,100276.17
2023-04-04T09:01:42.357Z,100284.90
2023-04-04T09:03:05.962Z,100274.30
2023-04-04T09:05:19.770Z,100276.55
2023-04-04T09:06:23.292Z,100283.93
2023-04-04T09:07:27.542Z,100276.07
2023-04-04T09:08:30.219Z,100281.30
2023-04-04T09:09:33.053Z,100281.27
2023-04-04T09:10:41.603Z,100280.33
2023-04-04T09:11:45.414Z,100275.11
2023-04-04T09:12:48.428Z,100281.13
2023-04-04T09:13:51.974Z,100282.86
2023-04-04T09:14:56.672Z,100287.16
2023-04-04T09:16:00.252Z,100292.38
2023-04-04T09:17:02.936Z,100290.61
2023-04-04T09:18:05.110Z,100294.91
2023-04-04T09:19:07.287Z,100298.44
2023-04-04T09:20:38.916Z,100296.70
2023-04-04T09:22:56.266Z,100290.27
2023-04-04T09:24:00.253Z,100299.44
2023-04-04T09:25:04.833Z,100296.78
2023-04-04T09:26:07.799Z,100298.51
2023-04-04T09:27:10.952Z,100297.61
2023-04-04T09:28:15.276Z,100295.80
2023-04-04T09:30:28.913Z,100298.16
2023-04-04T09:31:31.305Z,100299.44
2023-04-04T09:32:34.205Z,100305.57
2023-04-04T09:33:38.274Z,100302.91
2023-04-04T09:34:42.297Z,100300.27
2023-04-04T09:36:57.152Z,100294.70
2023-04-04T09:38:00.782Z,100301.17
2023-04-04T09:39:04.407Z,100301.97
2023-04-04T09:41:19.282Z,100302.59
2023-04-04T09:42:23.807Z,100302.04
2023-04-04T09:43:26.328Z,100303.77
2023-04-04T09:44:29.223Z,100310.77
2023-04-04T09:45:34.275Z,100301.03
2023-04-04T09:46:36.906Z,100297.50
2023-04-04T09:47:40.074Z,100295.77
2023-04-04T09:48:45.923Z,100296.61
2023-04-04T09:49:49.766Z,100296.53
2023-04-04T09:50:52.095Z,100293.11
2023-04-04T09:51:54.267Z,100291.27
2023-04-04T09:52:58.271Z,100294.73
2023-04-04T09:54:00.592Z,100297.33
2023-04-04T09:55:06.824Z,100300.76
2023-04-04T09:56:11.206Z,100291.92
2023-04-04T09:57:14.034Z,100292.86
2023-04-04T09:58:17.870Z,100295.45
2023-04-04T09:59:20.173Z,100291.92
2023-04-04T10:00:22.500Z,100289.25
2023-04-04T10:01:24.988Z,100294.41
2023-04-04T10:02:33.890Z,100292.54
2023-04-04T10:03:36.911Z,100288.93
2023-04-04T10:04:39.140Z,100287.20
2023-04-04T10:05:42.451Z,100282.80
2023-04-04T10:06:45.325Z,100290.66
2023-04-04T10:07:47.892Z,100290.73
2023-04-04T10:08:50.698Z,100295.09
2023-04-04T10:09:52.915Z,100292.42
2023-04-04T10:11:09.678Z,100297.66
2023-04-04T10:12:08.983Z,100299.42
2023-04-04T10:13:11.293Z,100293.26
2023-04-04T10:14:13.533Z,100287.09
2023-04-04T10:15:15.726Z,100292.36
2023-04-04T10:16:18.976Z,100291.38
2023-04-04T10:17:22.747Z,100292.28
2023-04-04T10:18:26.744Z,100287.09
2023-04-04T10:19:29.079Z,100292.25
2023-04-04T10:20:32.918Z,100288.75
2023-04-04T10:21:35.499Z,100284.31
2023-04-04T10:22:38.335Z,100285.14
2023-04-04T10:23:43.649Z,100283.33
2023-04-04T10:24:45.961Z,100284.13
2023-04-04T10:25:49.052Z,100284.98
2023-04-04T10:26:51.379Z,100291.87
2023-04-04T10:27:54.166Z,100288.34
2023-04-04T10:28:56.270Z,100290.14
2023-04-04T10:30:00.757Z,100285.70
2023-04-04T10:31:25.560Z,100292.70
2023-04-04T10:32:49.561Z,100284.72
2023-04-04T10:34:18.575Z,100285.47
2023-04-04T10:35:23.756Z,100276.70
2023-04-04T10:37:42.161Z,100277.14
2023-04-04T10:38:48.037Z,100277.46
2023-04-04T10:39:59.742Z,100273.92
2023-04-04T10:41:04.441Z,100275.57
2023-04-04T10:42:07.199Z,100279.86
2023-04-04T10:43:11.604Z,100279.86
2023-04-04T10:45:36.583Z,100273.95
2023-04-04T10:46:42.559Z,100285.72
2023-04-04T10:47:46.395Z,100276.00
2023-04-04T10:48:49.799Z,100275.92
2023-04-04T10:49:52.565Z,100286.38
2023-04-04T10:50:57.115Z,100283.79
2023-04-04T10:51:59.293Z,100271.32
2023-04-04T10:53:02.514Z,100271.23
2023-04-04T10:54:06.148Z,100273.83
2023-04-04T10:55:14.092Z,100272.06
2023-04-04T10:56:19.693Z,100264.23
2023-04-04T10:57:23.114Z,100272.92
2023-04-04T10:58:27.315Z,100268.52
2023-04-04T10:59:29.530Z,100270.25
2023-04-04T11:00:31.966Z,100271.11
2023-04-04T11:03:00.133Z,100270.62
2023-04-04T11:04:21.622Z,100267.48
2023-04-04T11:05:34.754Z,100266.55
2023-04-04T11:07:01.210Z,100275.19
2023-04-04T11:08:08.295Z,100272.60
2023-04-04T11:09:11.238Z,100276.88
2023-04-04T11:10:17.838Z,100275.98
2023-04-04T11:11:23.103Z,100280.47
2023-04-04T11:12:30.181Z,100283.14
2023-04-04T11:13:34.000Z,100287.59
2023-04-04T11:14:36.133Z,100284.87
2023-04-04T11:17:11.749Z,100279.09
2023-04-04T11:18:30.660Z,100284.87
2023-04-04T11:19:18.726Z,100288.34
2023-04-04T11:21:32.749Z,100287.87
2023-04-04T11:22:35.878Z,100282.98
2023-04-04T11:23:50.832Z,100288.25
2023-04-04T11:24:59.850Z,100288.20
2023-04-04T11:26:03.173Z,100275.02
2023-04-04T11:27:05.403Z,100282.81
2023-04-04T11:28:35.060Z,100286.23
2023-04-04T11:29:50.837Z,100282.69
2023-04-04T11:31:20.883Z,100283.51
2023-04-04T11:32:50.120Z,100293.92
2023-04-04T11:34:06.903Z,100293.06
2023-04-04T11:35:10.302Z,100300.97
2023-04-04T11:36:34.420Z,100298.28
2023-04-04T11:38:57.013Z,100297.00
2023-04-04T11:40:03.335Z,100289.56
2023-04-04T11:41:05.565Z,100289.51
2023-04-04T11:42:13.268Z,100288.60
2023-04-04T11:43:15.946Z,100290.21
2023-04-04T11:44:20.558Z,100288.52
2023-04-04T11:45:24.988Z,100296.27
2023-04-04T11:46:29.469Z,100292.80
2023-04-04T11:47:31.881Z,100293.54
2023-04-04T11:48:34.406Z,100287.44
2023-04-04T11:49:42.963Z,100290.81
2023-04-04T11:50:47.049Z,100288.22
2023-04-04T11:51:49.259Z,100292.62
2023-04-04T11:52:54.024Z,100288.17
2023-04-04T11:53:56.264Z,100293.38
2023-04-04T11:54:58.503Z,100293.38
2023-04-04T11:56:01.098Z,100289.78
2023-04-04T11:57:05.567Z,100281.87
2023-04-04T11:58:13.404Z,100281.78
2023-04-04T11:59:21.025Z,100282.59
2023-04-04T12:00:34.824Z,100288.01
2023-04-04T12:01:38.235Z,100281.87
2023-04-04T12:02:42.154Z,100288.05
2023-04-04T12:03:44.658Z,100283.59
2023-04-04T12:04:47.922Z,100278.32
2023-04-04T12:05:51.327Z,100282.73
2023-04-04T12:06:56.113Z,100282.73
2023-04-04T12:07:59.541Z,100280.14
2023-04-04T12:09:03.503Z,100274.81
2023-04-04T12:10:06.727Z,100270.31
2023-04-04T12:11:08.950Z,100275.45
2023-04-04T12:12:14.539Z,100279.88
2023-04-04T12:13:16.822Z,100276.41
2023-04-04T12:14:20.919Z,100281.59
2023-04-04T12:15:23.023Z,100282.55
2023-04-04T12:16:28.923Z,100286.97
2023-04-04T12:17:31.631Z,100286.10
2023-04-04T12:18:34.282Z,100285.23
2023-04-04T12:19:38.093Z,100290.52
2023-04-04T12:20:40.446Z,100286.97
2023-04-04T12:21:42.491Z,100293.97
2023-04-04T12:22:48.230Z,100289.39
2023-04-04T12:23:51.497Z,100293.76
2023-04-04T12:24:53.698Z,100291.16
2023-04-04T12:25:56.653Z,100288.48
2023-04-04T12:26:58.868Z,100294.63
2023-04-04T12:28:04.011Z,100290.33
2023-04-04T12:29:08.549Z,100288.61
2023-04-04T12:30:13.189Z,100293.97
2023-04-04T12:31:16.220Z,100290.33
2023-04-04T12:32:19.018Z,100282.42
2023-04-04T12:33:21.664Z,100282.42